Time;durP1;ratioP1;P1;durP2;ratioP2;P2;SDS_P1;SDS_P2;PMS_P1;PMS_P2;Temp;Humidity;BMP_temperature;BMP_pressure;BME280_temperature;BME280_humidity;BME280_pressure;Samples;Min_cycle;Max_cycle;Signal;HPM_P1;HPM_P2
2021/05/01 00:01:30;;;;;;;10.48;9.25;;;11.50;99.90;;;;;;1942888;72;21101;-72
2021/05/01 00:03:57;;;;;;;10.23;9.18;;;11.50;99.90;;;;;;1947570;72;21214;-73
2021/05/01 00:06:24;;;;;;;10.38;8.88;;;11.50;99.90;;;;;;1946403;73;21069;-73
2021/05/01 00:08:52;;;;;;;9.50;8.60;;;11.40;99.90;;;;;;1948864;72;21103;-73
2021/05/01 00:11:21;;;;;;;10.88;9.25;;;11.40;99.90;;;;;;1940596;73;21089;-73
2021/05/01 00:13:50;;;;;;;10.65;9.43;;;11.50;99.90;;;;;;1945004;73;21209;-74
2021/05/01 00:16:18;;;;;;;11.93;9.83;;;11.50;99.90;;;;;;1945682;73;21680;-73
2021/05/01 00:18:45;;;;;;;12.93;10.50;;;11.50;99.90;;;;;;1945590;73;21104;-73
2021/05/01 00:21:13;;;;;;;10.45;9.35;;;11.60;99.90;;;;;;1951581;73;21033;-73
2021/05/01 00:23:40;;;;;;;9.90;8.90;;;11.60;99.90;;;;;;1941501;72;21132;-73
2021/05/01 00:26:11;;;;;;;10.15;9.05;;;11.60;99.90;;;;;;1946971;73;21127;-72
2021/05/01 00:28:38;;;;;;;10.72;9.60;;;11.60;99.90;;;;;;1940540;73;21070;-73
2021/05/01 00:31:05;;;;;;;10.08;9.05;;;11.40;99.90;;;;;;1946554;73;21113;-72
2021/05/01 00:33:33;;;;;;;10.95;9.25;;;11.20;99.90;;;;;;1944013;73;21030;-72
2021/05/01 00:36:00;;;;;;;13.50;9.70;;;11.30;99.90;;;;;;1941302;73;21105;-73
2021/05/01 00:38:28;;;;;;;11.00;9.90;;;11.20;99.90;;;;;;1941828;73;21274;-72
2021/05/01 00:40:56;;;;;;;11.83;10.38;;;11.00;99.90;;;;;;1947046;72;21081;-72
2021/05/01 00:43:23;;;;;;;11.57;10.05;;;11.00;99.90;;;;;;1949461;73;21117;-72
2021/05/01 00:45:50;;;;;;;11.95;9.85;;;11.00;99.90;;;;;;1947424;72;21125;-72
2021/05/01 00:48:18;;;;;;;11.53;9.75;;;11.00;99.90;;;;;;1941951;73;22239;-72
2021/05/01 00:50:46;;;;;;;11.28;9.58;;;11.10;99.90;;;;;;1949180;73;21559;-72
2021/05/01 00:53:14;;;;;;;11.68;10.43;;;11.00;99.90;;;;;;1946862;72;21098;-72
2021/05/01 00:55:44;;;;;;;11.20;10.10;;;10.90;99.90;;;;;;1949702;72;21093;-72
2021/05/01 00:58:13;;;;;;;12.60;11.30;;;10.90;99.90;;;;;;1945897;73;21042;-73
2021/05/01 01:01:08;;;;;;;12.33;10.35;;;10.90;99.90;;;;;;1948159;73;21081;-73
2021/05/01 01:03:22;;;;;;;13.53;11.87;;;11.10;99.90;;;;;;1946255;73;21074;-73
2021/05/01 01:05:50;;;;;;;11.65;10.45;;;11.20;99.90;;;;;;1941593;73;21210;-73
2021/05/01 01:08:17;;;;;;;13.78;11.68;;;11.10;99.90;;;;;;1947917;72;21085;-73
2021/05/01 01:10:45;;;;;;;12.60;11.28;;;11.10;99.90;;;;;;1946375;73;21127;-73
2021/05/01 01:13:13;;;;;;;14.83;11.70;;;10.90;99.90;;;;;;1946499;73;21607;-73
2021/05/01 01:15:40;;;;;;;13.90;11.75;;;10.90;99.90;;;;;;1946072;73;21078;-72
2021/05/01 01:18:08;;;;;;;12.80;11.45;;;10.90;99.90;;;;;;1945896;73;21090;-72
2021/05/01 01:20:35;;;;;;;14.78;11.95;;;10.80;99.90;;;;;;1946915;73;21081;-72
2021/05/01 01:23:03;;;;;;;13.98;12.03;;;10.80;99.90;;;;;;1949338;72;21053;-73
2021/05/01 01:25:31;;;;;;;14.38;12.53;;;10.90;99.90;;;;;;1948191;72;21245;-73
2021/05/01 01:28:00;;;;;;;14.45;12.78;;;10.90;99.90;;;;;;1943693;73;21093;-73
2021/05/01 01:30:34;;;;;;;13.90;12.40;;;10.80;99.90;;;;;;1945670;73;21599;-73
2021/05/01 01:33:04;;;;;;;15.75;13.15;;;10.80;99.90;;;;;;1944240;73;21128;-72
2021/05/01 01:38:01;;;;;;;16.37;13.32;;;10.60;99.90;;;;;;1821072;77;21259;-76
2021/05/01 01:40:30;;;;;;;16.05;13.90;;;10.60;99.90;;;;;;1851972;77;21105;-76
2021/05/01 01:42:58;;;;;;;15.70;13.62;;;10.50;99.90;;;;;;1821133;77;21184;-76
2021/05/01 01:45:27;;;;;;;16.15;13.62;;;10.50;99.90;;;;;;1854848;75;21406;-76
2021/05/01 01:47:57;;;;;;;18.17;15.05;;;10.40;99.90;;;;;;1825073;77;21641;-75
2021/05/01 01:50:25;;;;;;;17.90;15.25;;;10.60;99.90;;;;;;1827087;77;21096;-75
2021/05/01 01:52:53;;;;;;;14.95;13.35;;;10.70;99.90;;;;;;1805931;78;21646;-75
2021/05/01 01:55:22;;;;;;;15.98;13.93;;;10.70;99.90;;;;;;1796887;78;21156;-75
2021/05/01 01:57:51;;;;;;;17.60;14.35;;;10.60;99.90;;;;;;1792907;78;21091;-74
2021/05/01 02:00:27;;;;;;;16.20;13.18;;;10.50;99.90;;;;;;1820457;77;21128;-74
2021/05/01 02:02:55;;;;;;;17.65;14.58;;;10.40;99.90;;;;;;1828506;77;21530;-76
2021/05/01 02:05:23;;;;;;;15.08;13.43;;;10.30;99.90;;;;;;1830982;77;21110;-74
2021/05/01 02:07:51;;;;;;;15.53;13.30;;;10.30;99.90;;;;;;1825383;77;21248;-74
2021/05/01 02:10:19;;;;;;;15.10;13.50;;;10.30;99.90;;;;;;1824160;77;21150;-75
2021/05/01 02:12:47;;;;;;;15.20;13.60;;;10.30;99.90;;;;;;1818665;78;21132;-75
2021/05/01 02:15:23;;;;;;;16.23;13.18;;;10.30;99.90;;;;;;1824255;77;22275;-75
2021/05/01 02:17:53;;;;;;;16.85;14.07;;;10.30;99.90;;;;;;1793491;78;21114;-75
2021/05/01 02:20:23;;;;;;;16.27;14.47;;;10.30;99.90;;;;;;1794951;78;21124;-75
2021/05/01 02:22:51;;;;;;;16.00;14.25;;;10.30;99.90;;;;;;1826231;77;21114;-75
2021/05/01 02:25:20;;;;;;;15.15;13.55;;;10.30;99.90;;;;;;1823143;78;21108;-75
2021/05/01 02:27:48;;;;;;;16.77;14.15;;;10.40;99.90;;;;;;1794598;78;21124;-74
2021/05/01 02:30:22;;;;;;;16.07;14.25;;;10.40;99.90;;;;;;1819216;78;21136;-75
2021/05/01 02:32:49;;;;;;;16.02;14.28;;;10.40;99.90;;;;;;1824715;77;21575;-75
2021/05/01 02:35:23;;;;;;;16.82;14.60;;;10.30;99.90;;;;;;1821897;77;21132;-75
2021/05/01 02:37:52;;;;;;;20.45;15.30;;;10.30;99.90;;;;;;1821394;77;21168;-76
2021/05/01 02:40:20;;;;;;;15.78;14.18;;;10.30;99.90;;;;;;1817894;78;21202;-76
2021/05/01 02:42:48;;;;;;;16.50;14.43;;;10.30;99.90;;;;;;1821572;77;21090;-75
2021/05/01 02:45:18;;;;;;;15.93;14.28;;;10.20;99.90;;;;;;1791748;78;21242;-75
2021/05/01 02:47:47;;;;;;;16.42;14.65;;;10.10;99.90;;;;;;1822636;78;21267;-75
2021/05/01 02:50:15;;;;;;;18.50;15.08;;;9.90;99.90;;;;;;1821264;77;21640;-75
2021/05/01 02:52:43;;;;;;;18.10;15.03;;;9.90;99.90;;;;;;1822073;77;21168;-74
2021/05/01 02:55:13;;;;;;;17.35;14.70;;;9.90;99.90;;;;;;1820754;78;21752;-75
2021/05/01 02:57:40;;;;;;;19.27;15.38;;;9.90;99.90;;;;;;1789354;78;21178;-76
2021/05/01 03:00:10;;;;;;;17.17;15.30;;;9.90;99.90;;;;;;1821306;77;21064;-76
2021/05/01 03:02:38;;;;;;;17.02;15.25;;;9.90;99.90;;;;;;1818735;77;21041;-75
2021/05/01 03:05:07;;;;;;;17.73;15.88;;;10.00;99.90;;;;;;1823697;77;21143;-76
2021/05/01 03:07:35;;;;;;;17.55;15.75;;;10.00;99.90;;;;;;1820847;77;21223;-75
2021/05/01 03:10:08;;;;;;;19.17;16.65;;;10.10;99.90;;;;;;1795814;78;21100;-75
2021/05/01 03:12:35;;;;;;;18.60;16.45;;;10.10;99.90;;;;;;1829111;77;21618;-75
2021/05/01 03:15:05;;;;;;;19.17;16.62;;;9.90;99.90;;;;;;1793351;78;21073;-75
2021/05/01 03:17:33;;;;;;;18.57;16.27;;;9.90;99.90;;;;;;1795015;78;21109;-76
2021/05/01 03:20:01;;;;;;;19.45;17.05;;;9.90;99.90;;;;;;1835235;77;21055;-76
2021/05/01 03:22:28;;;;;;;17.98;16.05;;;9.80;99.90;;;;;;1812669;78;21535;-76
2021/05/01 03:24:56;;;;;;;19.20;16.90;;;9.80;99.90;;;;;;1793163;78;21239;-75
2021/05/01 03:27:24;;;;;;;20.10;17.50;;;9.80;99.90;;;;;;1830385;77;21216;-75
2021/05/01 03:29:52;;;;;;;20.48;17.60;;;9.80;99.90;;;;;;1826934;77;21077;-75
2021/05/01 03:32:19;;;;;;;19.32;17.32;;;9.80;99.90;;;;;;1823892;77;21987;-75
2021/05/01 03:34:47;;;;;;;21.10;18.90;;;9.70;99.90;;;;;;1827669;77;21084;-74
2021/05/01 03:37:14;;;;;;;21.45;18.30;;;9.60;99.90;;;;;;1826098;77;21167;-76
2021/05/01 03:39:42;;;;;;;23.70;18.52;;;9.60;99.90;;;;;;1822779;77;21407;-75
2021/05/01 03:42:10;;;;;;;20.90;18.65;;;9.60;99.90;;;;;;1819540;77;21201;-75
2021/05/01 03:44:38;;;;;;;20.82;18.62;;;9.70;99.90;;;;;;1798542;78;21757;-76
2021/05/01 03:47:05;;;;;;;20.60;18.40;;;9.60;99.90;;;;;;1829007;77;21479;-76
2021/05/01 03:49:33;;;;;;;23.65;19.65;;;9.70;99.90;;;;;;1789278;78;21118;-76
2021/05/01 03:52:00;;;;;;;23.77;19.92;;;9.70;99.90;;;;;;1795007;78;21132;-76
2021/05/01 03:54:28;;;;;;;22.45;19.85;;;9.70;99.90;;;;;;1835420;77;21100;-76
2021/05/01 03:56:55;;;;;;;22.45;20.05;;;9.80;99.90;;;;;;1819987;78;21261;-75
2021/05/01 03:59:23;;;;;;;21.62;19.32;;;9.80;99.90;;;;;;1795042;78;21202;-76
2021/05/01 04:01:50;;;;;;;22.73;19.85;;;9.70;99.90;;;;;;1831399;77;21546;-76
2021/05/01 04:04:19;;;;;;;25.12;20.15;;;9.80;99.90;;;;;;1820061;78;21120;-75
2021/05/01 04:06:47;;;;;;;22.20;19.62;;;9.70;99.90;;;;;;1828111;77;21171;-76
2021/05/01 04:09:15;;;;;;;23.67;20.32;;;9.70;99.90;;;;;;1820118;77;21146;-75
2021/05/01 04:11:42;;;;;;;23.10;20.32;;;9.70;99.90;;;;;;1819043;77;21210;-76
2021/05/01 04:14:10;;;;;;;22.13;19.80;;;9.70;99.90;;;;;;1823960;77;21087;-75
2021/05/01 04:16:37;;;;;;;22.60;20.20;;;9.70;99.90;;;;;;1822512;77;21207;-75
2021/05/01 04:19:05;;;;;;;24.35;20.97;;;9.70;99.90;;;;;;1796295;78;21104;-75
2021/05/01 04:21:32;;;;;;;24.45;21.42;;;9.70;99.90;;;;;;1819678;78;21605;-74
2021/05/01 04:24:00;;;;;;;23.30;20.80;;;9.60;99.90;;;;;;1830280;77;21148;-75
2021/05/01 04:26:27;;;;;;;23.42;20.92;;;9.60;99.90;;;;;;1826941;77;21521;-75
2021/05/01 04:28:56;;;;;;;25.02;22.20;;;9.70;99.90;;;;;;1823168;77;21728;-75
2021/05/01 04:31:24;;;;;;;24.07;21.50;;;9.70;99.90;;;;;;1824362;77;21183;-74
2021/05/01 04:33:52;;;;;;;24.37;21.80;;;9.80;99.90;;;;;;1792128;78;21266;-74
2021/05/01 04:36:19;;;;;;;23.22;20.77;;;9.70;99.90;;;;;;1818879;77;21172;-74
2021/05/01 04:38:47;;;;;;;23.83;21.30;;;9.70;99.90;;;;;;1816305;77;21103;-74
2021/05/01 04:41:15;;;;;;;25.85;22.32;;;9.80;99.90;;;;;;1802929;79;21128;-75
2021/05/01 04:43:44;;;;;;;24.12;21.27;;;9.90;99.90;;;;;;1778315;78;22146;-75
2021/05/01 04:46:17;;;;;;;25.55;22.30;;;10.10;99.90;;;;;;1781020;79;21130;-75
2021/05/01 04:48:44;;;;;;;26.33;23.00;;;10.10;99.90;;;;;;1805916;77;21141;-75
2021/05/01 04:51:12;;;;;;;26.60;22.42;;;10.00;99.90;;;;;;1811522;78;21065;-75
2021/05/01 04:53:40;;;;;;;26.35;21.77;;;9.90;99.90;;;;;;1809060;78;21108;-75
2021/05/01 04:56:07;;;;;;;26.17;23.38;;;9.90;99.90;;;;;;1811649;77;21606;-75
2021/05/01 04:58:35;;;;;;;26.68;22.15;;;10.00;99.90;;;;;;1821346;77;21118;-74
2021/05/01 05:01:02;;;;;;;23.92;21.42;;;10.00;99.90;;;;;;1811397;78;21511;-75
2021/05/01 05:03:29;;;;;;;26.07;22.90;;;10.10;99.90;;;;;;1811646;78;21577;-75
2021/05/01 05:05:57;;;;;;;25.92;23.18;;;10.00;99.90;;;;;;1811424;79;21144;-75
2021/05/01 05:08:25;;;;;;;28.47;23.57;;;10.10;99.90;;;;;;1813097;77;21161;-75
2021/05/01 05:10:52;;;;;;;25.95;23.20;;;10.20;99.90;;;;;;1810786;79;21434;-74
2021/05/01 05:13:26;;;;;;;27.32;23.47;;;10.20;99.90;;;;;;1809437;78;21480;-75
2021/05/01 05:15:54;;;;;;;29.37;24.07;;;10.30;99.90;;;;;;1809087;79;21603;-76
2021/05/01 05:18:23;;;;;;;29.50;24.63;;;10.30;99.90;;;;;;1810670;77;21112;-75
2021/05/01 05:20:50;;;;;;;25.70;23.00;;;10.30;99.90;;;;;;1810581;77;21505;-76
2021/05/01 05:23:18;;;;;;;28.83;23.98;;;10.20;99.90;;;;;;1809606;78;21163;-75
2021/05/01 05:25:46;;;;;;;28.67;25.68;;;9.90;99.90;;;;;;1816732;77;21132;-75
2021/05/01 05:28:13;;;;;;;27.02;23.47;;;10.00;99.90;;;;;;1814178;78;21104;-75
2021/05/01 05:30:41;;;;;;;28.70;25.27;;;10.00;99.90;;;;;;1812081;78;21041;-75
2021/05/01 05:33:08;;;;;;;32.23;24.82;;;10.10;99.90;;;;;;1813351;77;21090;-75
2021/05/01 05:35:36;;;;;;;28.70;25.55;;;10.20;99.90;;;;;;1809386;79;21073;-75
2021/05/01 05:38:03;;;;;;;28.98;24.57;;;10.20;99.90;;;;;;1810710;77;21112;-75
2021/05/01 05:40:34;;;;;;;29.07;25.17;;;10.10;99.90;;;;;;1811481;77;21190;-75
2021/05/01 05:43:02;;;;;;;26.90;23.95;;;10.10;99.90;;;;;;1812344;79;21571;-76
2021/05/01 05:45:31;;;;;;;31.42;25.30;;;10.20;99.90;;;;;;1816394;78;21149;-76
2021/05/01 05:47:59;;;;;;;29.27;25.37;;;10.20;99.90;;;;;;1809580;79;21222;-76
2021/05/01 05:50:27;;;;;;;27.85;24.23;;;10.10;99.90;;;;;;1812223;78;21124;-75
2021/05/01 05:52:54;;;;;;;27.62;24.65;;;10.30;99.90;;;;;;1811971;77;21175;-75
2021/05/01 05:55:22;;;;;;;28.32;24.85;;;10.40;99.90;;;;;;1807338;78;21161;-75
2021/05/01 05:57:54;;;;;;;30.12;25.80;;;10.50;99.90;;;;;;1782078;78;21140;-75
2021/05/01 06:00:24;;;;;;;29.67;24.55;;;10.40;99.90;;;;;;1814167;77;21066;-75
2021/05/01 06:02:53;;;;;;;28.30;24.70;;;10.30;99.90;;;;;;1817652;77;21217;-75
2021/05/01 06:05:30;;;;;;;29.50;25.17;;;10.40;99.90;;;;;;1818019;77;21602;-75
2021/05/01 06:08:04;;;;;;;28.25;24.60;;;10.50;99.90;;;;;;1817852;77;21144;-75
2021/05/01 06:10:33;;;;;;;28.95;23.47;;;10.30;99.90;;;;;;1820328;77;21113;-74
2021/05/01 06:13:02;;;;;;;27.50;24.40;;;10.20;99.90;;;;;;1784277;79;21605;-75
2021/05/01 06:15:30;;;;;;;27.00;24.05;;;10.20;99.90;;;;;;1809314;77;21588;-75
2021/05/01 06:18:00;;;;;;;28.57;24.82;;;10.30;99.90;;;;;;1820063;77;21617;-76
2021/05/01 06:20:30;;;;;;;30.65;25.50;;;10.50;99.90;;;;;;1809003;77;21195;-77
2021/05/01 06:22:59;;;;;;;31.80;27.40;;;10.40;99.90;;;;;;1811244;77;21112;-77
2021/05/01 06:25:27;;;;;;;32.90;26.55;;;10.50;99.90;;;;;;1812402;77;21762;-76
2021/05/01 06:27:55;;;;;;;30.75;26.25;;;10.70;99.90;;;;;;1810258;77;21212;-76
2021/05/01 06:30:24;;;;;;;30.57;26.35;;;10.70;99.90;;;;;;1809051;77;21150;-76
2021/05/01 06:32:52;;;;;;;32.08;26.57;;;10.50;99.90;;;;;;1817928;77;21738;-80
2021/05/01 06:35:21;;;;;;;32.25;26.90;;;10.60;99.90;;;;;;1811384;77;21197;-77
2021/05/01 06:37:51;;;;;;;32.98;25.85;;;10.60;99.90;;;;;;1812079;79;21768;-79
2021/05/01 06:40:22;;;;;;;28.65;25.55;;;10.50;99.90;;;;;;1810206;77;21090;-76
2021/05/01 06:43:04;;;;;;;33.28;25.88;;;10.40;99.90;;;;;;1810434;77;21594;-77
2021/05/01 06:45:34;;;;;;;28.65;25.62;;;10.50;99.90;;;;;;1811577;77;21046;-77
2021/05/01 06:48:05;;;;;;;28.57;24.20;;;10.50;99.90;;;;;;1808564;77;21057;-77
2021/05/01 06:50:33;;;;;;;30.08;26.07;;;10.60;99.90;;;;;;1813329;77;21121;-77
2021/05/01 06:53:02;;;;;;;30.90;25.32;;;10.50;99.90;;;;;;1815481;77;21611;-77
2021/05/01 06:55:32;;;;;;;29.60;25.55;;;10.60;99.90;;;;;;1818712;77;21124;-76
2021/05/01 06:58:01;;;;;;;34.48;27.30;;;10.50;99.90;;;;;;1808503;77;21892;-76
2021/05/01 07:00:30;;;;;;;31.07;27.32;;;10.60;99.90;;;;;;1809488;77;21132;-76
2021/05/01 07:03:06;;;;;;;30.92;26.95;;;10.90;99.90;;;;;;1804615;77;21180;-76
2021/05/01 07:05:34;;;;;;;30.80;27.10;;;10.90;99.90;;;;;;1807994;77;21101;-77
2021/05/01 07:08:02;;;;;;;31.40;27.13;;;11.10;99.90;;;;;;1778259;78;21133;-76
2021/05/01 07:10:30;;;;;;;30.92;27.27;;;11.10;99.90;;;;;;1812482;77;21215;-77
2021/05/01 07:12:59;;;;;;;35.52;27.52;;;11.00;99.90;;;;;;1814840;77;21195;-77
2021/05/01 07:15:27;;;;;;;33.73;29.02;;;10.80;99.90;;;;;;1808322;77;21132;-77
2021/05/01 07:17:55;;;;;;;34.65;28.05;;;11.00;99.90;;;;;;1810564;77;21258;-79
2021/05/01 07:20:24;;;;;;;35.70;28.27;;;11.10;99.90;;;;;;1817325;77;21618;-78
2021/05/01 07:22:53;;;;;;;31.82;27.73;;;11.10;99.90;;;;;;1811830;77;21319;-78
2021/05/01 07:25:22;;;;;;;32.73;28.32;;;10.90;99.90;;;;;;1813102;77;21058;-78
2021/05/01 07:27:58;;;;;;;34.58;28.75;;;10.90;99.90;;;;;;1863057;75;21226;-78
2021/05/01 07:30:28;;;;;;;34.38;28.85;;;10.80;99.90;;;;;;1814771;77;21102;-77
2021/05/01 07:33:14;;;;;;;32.78;28.15;;;10.90;99.90;;;;;;1817217;77;21134;-77
2021/05/01 07:35:44;;;;;;;32.65;28.50;;;10.80;99.90;;;;;;1798974;78;21104;-77
2021/05/01 07:38:15;;;;;;;32.08;26.82;;;10.90;99.90;;;;;;1866912;71;21086;-74
2021/05/01 07:40:43;;;;;;;34.95;28.62;;;11.00;99.90;;;;;;1892595;74;21264;-74
2021/05/01 07:43:14;;;;;;;35.65;30.82;;;11.20;99.90;;;;;;1871034;75;21584;-75
2021/05/01 07:45:43;;;;;;;31.90;27.82;;;11.40;99.90;;;;;;1859001;75;21169;-75
2021/05/01 07:48:11;;;;;;;39.03;33.25;;;11.40;99.90;;;;;;1891621;74;21169;-74
2021/05/01 07:50:39;;;;;;;39.05;31.73;;;11.30;99.90;;;;;;1897632;74;21183;-75
2021/05/01 07:53:07;;;;;;;36.93;31.23;;;11.50;99.90;;;;;;1901327;74;21094;-75
2021/05/01 07:55:34;;;;;;;36.55;30.45;;;11.60;99.90;;;;;;1896224;74;21186;-75
2021/05/01 07:58:02;;;;;;;47.65;36.28;;;11.70;99.90;;;;;;1894233;74;21301;-75
2021/05/01 08:00:29;;;;;;;49.03;36.63;;;11.80;99.90;;;;;;1897033;74;21135;-76
2021/05/01 08:02:57;;;;;;;42.88;34.78;;;11.90;99.90;;;;;;1898271;74;21130;-77
2021/05/01 08:05:25;;;;;;;51.08;36.73;;;11.90;99.90;;;;;;1900579;74;21109;-75
2021/05/01 08:07:52;;;;;;;54.63;42.00;;;12.20;99.90;;;;;;1862021;75;21165;-74
2021/05/01 08:10:22;;;;;;;52.10;40.10;;;12.30;99.90;;;;;;1891038;74;21070;-73
2021/05/01 08:12:50;;;;;;;55.25;42.05;;;12.40;99.90;;;;;;1893164;74;21145;-74
2021/05/01 08:15:18;;;;;;;57.10;42.75;;;12.60;99.90;;;;;;1862846;75;21194;-74
2021/05/01 08:17:46;;;;;;;60.25;43.42;;;12.60;99.90;;;;;;1863594;75;21443;-75
2021/05/01 08:20:15;;;;;;;57.90;42.30;;;12.60;99.90;;;;;;1861320;77;21082;-74
2021/05/01 08:22:42;;;;;;;57.60;42.10;;;12.70;99.90;;;;;;1886519;75;21019;-74
2021/05/01 08:25:12;;;;;;;56.37;41.33;;;12.50;99.90;;;;;;1890402;74;21019;-72
2021/05/01 08:27:40;;;;;;;58.95;42.55;;;12.70;99.90;;;;;;1893459;75;21114;-72
2021/05/01 08:30:11;;;;;;;62.62;43.83;;;12.80;99.90;;;;;;1891321;75;21553;-72
2021/05/01 08:32:38;;;;;;;66.33;46.53;;;12.70;99.90;;;;;;1858922;75;21006;-74
2021/05/01 08:35:06;;;;;;;62.93;44.98;;;12.80;99.90;;;;;;1861210;75;21098;-74
2021/05/01 08:37:34;;;;;;;59.93;43.00;;;12.70;99.90;;;;;;1859781;76;21079;-75
2021/05/01 08:40:01;;;;;;;61.65;45.70;;;12.70;99.90;;;;;;1892950;75;21227;-74
2021/05/01 08:42:29;;;;;;;66.50;46.25;;;13.10;99.90;;;;;;1890088;75;21091;-74
2021/05/01 08:45:02;;;;;;;60.17;42.85;;;13.20;99.90;;;;;;1892916;74;21090;-75
2021/05/01 08:47:33;;;;;;;60.95;43.70;;;13.20;99.90;;;;;;1887150;75;21110;-73
2021/05/01 08:50:00;;;;;;;62.00;42.45;;;13.00;99.90;;;;;;1890913;74;21074;-74
2021/05/01 08:52:27;;;;;;;60.52;42.73;;;13.20;99.90;;;;;;1889772;74;21110;-74
2021/05/01 08:54:55;;;;;;;59.00;42.10;;;13.20;99.90;;;;;;1860987;75;21130;-74
2021/05/01 08:57:29;;;;;;;56.55;41.70;;;13.00;99.90;;;;;;1860270;75;21185;-75
2021/05/01 08:59:57;;;;;;;54.42;38.85;;;13.10;99.90;;;;;;1864728;75;21067;-73
2021/05/01 09:02:28;;;;;;;53.17;40.30;;;13.30;99.90;;;;;;1868840;75;21137;-74
2021/05/01 09:04:57;;;;;;;59.33;42.20;;;13.40;99.90;;;;;;1861335;75;21094;-74
2021/05/01 09:07:27;;;;;;;54.90;39.35;;;13.50;99.90;;;;;;1861496;75;21106;-75
2021/05/01 09:10:00;;;;;;;68.65;44.48;;;13.50;99.90;;;;;;1863133;75;22112;-75
2021/05/01 09:12:43;;;;;;;63.05;44.63;;;13.60;99.90;;;;;;1866451;75;22125;-75
2021/05/01 09:15:25;;;;;;;60.33;42.58;;;13.70;99.90;;;;;;1866890;75;21113;-75
2021/05/01 09:18:01;;;;;;;61.90;45.35;;;14.00;99.90;;;;;;1869208;75;21203;-74
2021/05/01 09:20:30;;;;;;;62.78;45.17;;;14.10;99.90;;;;;;1864172;75;21046;-73
2021/05/01 09:23:02;;;;;;;57.70;40.55;;;14.00;99.90;;;;;;1866744;75;21082;-74
2021/05/01 09:25:35;;;;;;;49.23;37.42;;;13.90;99.90;;;;;;1864243;75;21086;-74
2021/05/01 09:28:07;;;;;;;56.37;40.08;;;14.00;99.90;;;;;;1858951;75;21126;-73
2021/05/01 09:30:37;;;;;;;60.55;40.83;;;14.00;99.90;;;;;;1860771;75;21101;-74
2021/05/01 09:33:26;;;;;;;66.80;46.45;;;14.10;99.90;;;;;;1862974;75;21113;-74
2021/05/01 09:36:06;;;;;;;64.37;44.13;;;13.90;99.90;;;;;;1862697;75;21184;-74
2021/05/01 09:38:42;;;;;;;66.95;47.53;;;13.80;99.90;;;;;;1870352;75;21110;-73
2021/05/01 09:41:15;;;;;;;65.72;49.38;;;13.70;99.90;;;;;;1867491;75;21109;-75
2021/05/01 09:44:06;;;;;;;63.13;49.63;;;13.50;99.90;;;;;;1865956;75;21154;-74
2021/05/01 09:46:41;;;;;;;63.17;47.80;;;13.30;99.90;;;;;;1866341;75;21140;-75
2021/05/01 09:49:37;;;;;;;66.75;48.85;;;13.00;99.90;;;;;;1869756;75;21165;-76
2021/05/01 09:52:13;;;;;;;68.25;51.33;;;12.80;99.90;;;;;;1770626;79;21114;-77
2021/05/01 09:54:46;;;;;;;77.92;53.42;;;12.50;99.90;;;;;;1760474;79;21103;-73
2021/05/01 09:57:17;;;;;;;74.42;52.80;;;12.30;99.90;;;;;;1822988;75;21146;-73
2021/05/01 09:59:50;;;;;;;76.28;53.17;;;12.10;99.90;;;;;;1860862;75;21560;-74
2021/05/01 10:02:23;;;;;;;78.95;55.03;;;12.20;99.90;;;;;;1864768;75;21085;-73
2021/05/01 10:05:06;;;;;;;76.00;53.05;;;12.20;99.90;;;;;;1861587;75;21245;-74
2021/05/01 10:07:36;;;;;;;76.75;53.83;;;12.20;99.90;;;;;;1867535;75;21122;-73
2021/05/01 10:10:04;;;;;;;74.97;53.87;;;12.30;99.90;;;;;;1867797;75;21163;-73
2021/05/01 10:12:41;;;;;;;73.90;54.15;;;12.40;99.90;;;;;;1868198;75;21180;-73
2021/05/01 10:15:19;;;;;;;68.92;51.98;;;12.50;99.90;;;;;;1863761;75;21187;-73
2021/05/01 10:17:47;;;;;;;71.50;53.85;;;12.50;99.90;;;;;;1867297;75;21114;-73
2021/05/01 10:20:16;;;;;;;71.30;53.45;;;12.50;99.90;;;;;;1865092;75;21110;-72
2021/05/01 10:22:44;;;;;;;73.55;53.42;;;12.50;99.90;;;;;;1868385;75;21116;-72
2021/05/01 10:25:15;;;;;;;75.37;55.70;;;12.40;99.90;;;;;;1868510;75;21578;-73
2021/05/01 10:27:57;;;;;;;72.72;54.20;;;12.40;99.90;;;;;;1862959;75;21125;-73
2021/05/01 10:30:30;;;;;;;71.60;54.70;;;12.40;99.90;;;;;;1864706;75;21122;-73
2021/05/01 10:33:10;;;;;;;75.05;54.77;;;12.40;99.90;;;;;;1867794;75;21278;-72
2021/05/01 10:35:31;;;;;;;73.45;54.85;;;12.40;99.90;;;;;;1863733;75;21097;-72
2021/05/01 10:38:03;;;;;;;73.50;55.23;;;12.20;99.90;;;;;;1866760;75;21177;-72
2021/05/01 10:40:54;;;;;;;74.72;55.08;;;12.20;99.90;;;;;;1867875;75;21557;-72
2021/05/01 10:43:30;;;;;;;78.42;57.08;;;12.10;99.90;;;;;;1867084;75;21216;-76
2021/05/01 10:46:06;;;;;;;78.60;56.80;;;12.30;99.90;;;;;;1864780;75;21074;-73
2021/05/01 10:48:48;;;;;;;78.65;54.77;;;12.30;99.90;;;;;;1860051;75;21117;-77
2021/05/01 10:51:19;;;;;;;73.97;54.37;;;12.20;99.90;;;;;;1865863;75;21248;-75
2021/05/01 10:53:50;;;;;;;76.02;54.98;;;12.40;99.90;;;;;;1864613;75;21465;-78
2021/05/01 10:56:20;;;;;;;79.50;54.88;;;12.20;99.90;;;;;;1866794;75;21103;-77
2021/05/01 10:58:50;;;;;;;72.20;54.63;;;12.10;99.90;;;;;;1864677;75;21215;-76
2021/05/01 11:01:43;;;;;;;74.12;53.90;;;12.20;99.90;;;;;;1864513;75;21675;-77
2021/05/01 11:04:06;;;;;;;71.95;52.75;;;12.30;99.90;;;;;;1860311;75;21077;-78
2021/05/01 11:06:48;;;;;;;95.90;70.95;;;12.40;99.90;;;;;;1864994;75;21602;-83
2021/05/01 11:09:40;;;;;;;70.25;52.80;;;12.40;99.90;;;;;;1867130;75;21269;-79
2021/05/01 11:12:10;;;;;;;70.72;52.75;;;12.40;99.90;;;;;;1865506;75;22426;-80
2021/05/01 11:14:43;;;;;;;68.42;51.53;;;12.70;99.90;;;;;;1864968;75;21153;-80
2021/05/01 11:17:13;;;;;;;59.00;45.12;;;12.60;99.90;;;;;;1867067;75;21087;-79
2021/05/01 11:19:46;;;;;;;60.83;44.67;;;12.60;99.90;;;;;;1867373;75;22027;-79
2021/05/01 11:22:22;;;;;;;61.13;44.65;;;12.50;99.90;;;;;;1866019;75;21145;-78
2021/05/01 11:24:50;;;;;;;63.85;47.17;;;12.60;99.90;;;;;;1865970;75;21582;-77
2021/05/01 11:27:19;;;;;;;65.00;48.08;;;12.60;99.90;;;;;;1863484;75;21768;-76
2021/05/01 11:29:47;;;;;;;62.88;48.95;;;12.70;99.90;;;;;;1865802;75;21312;-76
2021/05/01 11:32:14;;;;;;;67.35;48.75;;;12.60;99.90;;;;;;1867896;75;21102;-76
2021/05/01 11:34:43;;;;;;;62.60;49.25;;;12.60;99.90;;;;;;1865577;75;21145;-74
2021/05/01 11:37:11;;;;;;;66.20;50.48;;;12.70;99.90;;;;;;1866743;75;21217;-77
2021/05/01 11:39:43;;;;;;;64.42;48.50;;;12.80;99.90;;;;;;1866789;75;21214;-75
2021/05/01 11:42:11;;;;;;;71.47;53.35;;;12.80;99.90;;;;;;1866817;75;21085;-76
2021/05/01 11:44:39;;;;;;;64.75;48.25;;;12.80;99.90;;;;;;1866209;75;21175;-76
2021/05/01 11:47:12;;;;;;;64.37;47.08;;;12.80;99.90;;;;;;1864640;75;21681;-77
2021/05/01 11:49:40;;;;;;;61.15;45.78;;;12.80;99.90;;;;;;1865201;75;21163;-76
2021/05/01 11:52:23;;;;;;;59.27;45.35;;;12.80;99.90;;;;;;1866673;75;21744;-76
2021/05/01 11:55:07;;;;;;;55.15;44.20;;;12.90;99.90;;;;;;1866868;75;21141;-76
2021/05/01 11:57:49;;;;;;;55.35;43.25;;;13.50;99.90;;;;;;1863819;75;21557;-78
2021/05/01 12:00:34;;;;;;;49.13;38.38;;;14.60;99.90;;;;;;1867524;75;21175;-75
2021/05/01 12:03:22;;;;;;;46.08;38.95;;;15.60;99.90;;;;;;1864481;75;21097;-75
2021/05/01 12:06:03;;;;;;;42.85;33.38;;;16.30;99.90;;;;;;1866291;75;21094;-76
2021/05/01 12:08:32;;;;;;;38.15;33.35;;;16.60;99.90;;;;;;1867954;75;22529;-79
2021/05/01 12:11:01;;;;;;;40.92;34.43;;;16.30;99.90;;;;;;1867068;75;21093;-77
2021/05/01 12:13:35;;;;;;;43.20;33.53;;;16.40;99.90;;;;;;1867696;75;21538;-76
2021/05/01 12:16:04;;;;;;;40.90;35.35;;;16.30;99.90;;;;;;1860380;75;21627;-76
2021/05/01 12:18:50;;;;;;;41.95;34.60;;;15.80;99.90;;;;;;1868714;75;21137;-76
2021/05/01 12:21:25;;;;;;;39.50;34.53;;;15.80;99.90;;;;;;1863937;75;21042;-75
2021/05/01 12:23:55;;;;;;;39.92;33.33;;;15.60;99.90;;;;;;1847873;75;21094;-75
2021/05/01 12:26:38;;;;;;;35.68;31.60;;;15.30;99.90;;;;;;1862594;75;21079;-78
2021/05/01 12:29:25;;;;;;;41.20;35.35;;;15.20;99.90;;;;;;1861705;75;21079;-77
2021/05/01 12:31:55;;;;;;;42.83;35.60;;;15.10;99.90;;;;;;1862391;75;21102;-74
2021/05/01 12:34:25;;;;;;;40.03;34.92;;;15.10;99.90;;;;;;1867202;75;21102;-76
2021/05/01 12:36:53;;;;;;;39.08;33.33;;;14.90;99.90;;;;;;1860618;75;21161;-76
2021/05/01 12:39:21;;;;;;;37.15;32.00;;;14.70;99.90;;;;;;1866688;75;21165;-77
2021/05/01 12:41:50;;;;;;;33.95;28.23;;;14.70;99.90;;;;;;1866321;75;21113;-77
2021/05/01 12:44:36;;;;;;;31.85;25.60;;;14.50;99.90;;;;;;1865768;75;21381;-76
2021/05/01 12:47:05;;;;;;;26.80;23.65;;;14.40;99.90;;;;;;1868399;75;21115;-77